Terminal Aerodrome Forecast
Issued by NWS Cleveland, OH

Home | Current Version | Previous Version | Graphics & Text | Print | Product List | Glossary On
Versions: 1 2 3 4 5 6 7 8 9 10 11 12 13
000
FTUS41 KCLE 271700
TAFERI
TAF
KERI 271738Z 2718/2818 17009KT P6SM BKN250
     FM280300 18012G20KT P6SM FEW040 BKN120
     FM281400 20018G28KT P6SM BKN040=

USA.gov is the U.S. government's official web portal to all federal, state and local government web resources and services.